Estación Meteorológica Peña el Pijo (Robertgarden) [ 11/20/17 01:25:15 CET ]

Fecha Hora Presion(HPa) Temp (°C) Humedad % Rocio (°C) Viento ( m/s) Direccion Lluvia 1Hora(mm) Lluvia 24H(mm) LLuvia Total(mm)
2017-Nov-02 01:01:29 1012.200 4.8 84 2.3         1466.45
2017-Nov-02 02:01:42 1011.800 4.2 85 1.9         1466.45
2017-Nov-02 03:01:42 1011.900 3.9 86 1.8         1466.45
2017-Nov-02 04:04:08 1011.500 3.3 86 1.2         1466.45
2017-Nov-02 05:01:28 1011.300 2.7 87 0.7         1466.45
2017-Nov-02 06:01:23 1011.100 2.3 87 0.3         1466.45
2017-Nov-02 07:01:25 1011.100 1.9 88 0.1         1466.45
2017-Nov-02 08:01:43 1011.300 2.1 88 0.3         1466.45
2017-Nov-02 09:01:29 1011.400 4.7 90 3.2         1466.45
2017-Nov-02 10:01:28 1011.300 11.2 89 9.2         1466.45
2017-Nov-02 11:01:23 1011.000 17.1 72 12.0         1466.45
2017-Nov-02 12:01:31 1010.600 19.9 51 9.5         1466.45
2017-Nov-02 13:01:23 1009.500 20.6 44 7.9         1466.45
2017-Nov-02 14:01:40 1008.800 22.2 40 8.0         1466.45
2017-Nov-02 15:01:26 1008.400 21.0 42 7.6         1466.45
2017-Nov-02 16:01:11 1008.300 19.6 47 8.1         1466.45
2017-Nov-02 17:01:39 1008.600 18.0 53 8.2         1466.45
2017-Nov-02 18:01:33 1008.400 15.9 58 7.7         1466.45
2017-Nov-02 19:01:46 1008.700 13.9 64 7.2         1466.45
2017-Nov-02 20:01:48 1009.300 10.5 68 4.8         1466.45
2017-Nov-02 21:01:46 1009.500 8.4 74 4.0         1466.45
2017-Nov-02 22:02:02 1009.500 7.2 77 3.4         1466.45
2017-Nov-02 23:01:55 1009.500 6.5 80 3.3         1466.45

Temperatura Máxima:22°    Temperatura Mínima:
Presión Máxima:1012.200 Hpa    Presión Mínima:1008.300 Hpa


Volver